<?xml version="1.0" encoding="UTF-8" standalone="no" ?>
<gpx xmlns="http://www.topografix.com/GPX/1/1" xmlns:xsi="http://www.w3.org/2001/XMLSchema-instance" xsi:schemaLocation="http://www.topografix.com/GPX/1/1 http://www.topografix.com/GPX/1/1/gpx.xsd" version="1.1" creator="VisuGPX - https://www.visugpx.com">
  <metadata>
    <name>CORSE - LIAISON MARITIME - Barcaggio à Macinaggio</name>
    <desc><![CDATA[Retour de la randonnée pédestre en bateau]]></desc>
  </metadata>
  <trk>
    <name><![CDATA[ACTIVE LOG 007]]></name>
    <trkseg>
      <trkpt lat="43.0063" lon="9.4019">
        <ele>8.308594</ele>
        <time>2012-09-08T14:25:18Z</time>
      </trkpt>
      <trkpt lat="43.00626" lon="9.40186">
        <ele>8.308594</ele>
        <time>2012-09-08T14:25:19Z</time>
      </trkpt>
      <trkpt lat="43.00621" lon="9.40198">
        <ele>4.463257</ele>
        <time>2012-09-08T14:25:27Z</time>
      </trkpt>
      <trkpt lat="43.00622" lon="9.40202">
        <ele>1.579346</ele>
        <time>2012-09-08T14:25:32Z</time>
      </trkpt>
      <trkpt lat="43.00622" lon="9.40203">
        <ele>1.579346</ele>
        <time>2012-09-08T14:25:33Z</time>
      </trkpt>
      <trkpt lat="43.00624" lon="9.40202">
        <ele>-1.785278</ele>
        <time>2012-09-08T14:25:40Z</time>
      </trkpt>
      <trkpt lat="43.00639" lon="9.40205">
        <ele>-4.669312</ele>
        <time>2012-09-08T14:26:01Z</time>
      </trkpt>
      <trkpt lat="43.0064" lon="9.40206">
        <ele>-4.188599</ele>
        <time>2012-09-08T14:26:02Z</time>
      </trkpt>
      <trkpt lat="43.00653" lon="9.40218">
        <ele>-4.669312</ele>
        <time>2012-09-08T14:26:23Z</time>
      </trkpt>
      <trkpt lat="43.00654" lon="9.40219">
        <ele>-5.149902</ele>
        <time>2012-09-08T14:26:47Z</time>
      </trkpt>
      <trkpt lat="43.00655" lon="9.40219">
        <ele>-4.188599</ele>
        <time>2012-09-08T14:27:24Z</time>
      </trkpt>
      <trkpt lat="43.00657" lon="9.4022">
        <ele>-4.188599</ele>
        <time>2012-09-08T14:27:56Z</time>
      </trkpt>
      <trkpt lat="43.00656" lon="9.4022">
        <ele>-4.188599</ele>
        <time>2012-09-08T14:28:49Z</time>
      </trkpt>
      <trkpt lat="43.00656" lon="9.4022">
        <ele>-3.707886</ele>
        <time>2012-09-08T14:29:24Z</time>
      </trkpt>
      <trkpt lat="43.00658" lon="9.40222">
        <ele>-3.227295</ele>
        <time>2012-09-08T14:29:46Z</time>
      </trkpt>
      <trkpt lat="43.00659" lon="9.40223">
        <ele>-3.227295</ele>
        <time>2012-09-08T14:30:06Z</time>
      </trkpt>
      <trkpt lat="43.00661" lon="9.40221">
        <ele>-3.707886</ele>
        <time>2012-09-08T14:30:22Z</time>
      </trkpt>
      <trkpt lat="43.00662" lon="9.40222">
        <ele>-5.149902</ele>
        <time>2012-09-08T14:30:38Z</time>
      </trkpt>
      <trkpt lat="43.00659" lon="9.40218">
        <ele>-4.669312</ele>
        <time>2012-09-08T14:31:22Z</time>
      </trkpt>
      <trkpt lat="43.00661" lon="9.40219">
        <ele>-5.149902</ele>
        <time>2012-09-08T14:32:00Z</time>
      </trkpt>
      <trkpt lat="43.00659" lon="9.40218">
        <ele>-4.188599</ele>
        <time>2012-09-08T14:32:57Z</time>
      </trkpt>
      <trkpt lat="43.0066" lon="9.40222">
        <ele>-2.746704</ele>
        <time>2012-09-08T14:34:01Z</time>
      </trkpt>
      <trkpt lat="43.00661" lon="9.40222">
        <ele>-2.746704</ele>
        <time>2012-09-08T14:35:30Z</time>
      </trkpt>
      <trkpt lat="43.00659" lon="9.40215">
        <ele>-0.824097</ele>
        <time>2012-09-08T14:39:38Z</time>
      </trkpt>
      <trkpt lat="43.00662" lon="9.40219">
        <ele>0.137451</ele>
        <time>2012-09-08T14:42:21Z</time>
      </trkpt>
      <trkpt lat="43.0066" lon="9.4022">
        <ele>0.137451</ele>
        <time>2012-09-08T14:44:01Z</time>
      </trkpt>
      <trkpt lat="43.00653" lon="9.40241">
        <ele>1.098633</ele>
        <time>2012-09-08T14:46:08Z</time>
      </trkpt>
      <trkpt lat="43.00654" lon="9.40248">
        <ele>1.098633</ele>
        <time>2012-09-08T14:46:23Z</time>
      </trkpt>
      <trkpt lat="43.00685" lon="9.4027">
        <ele>1.579346</ele>
        <time>2012-09-08T14:46:52Z</time>
      </trkpt>
      <trkpt lat="43.00722" lon="9.40284">
        <ele>1.579346</ele>
        <time>2012-09-08T14:47:12Z</time>
      </trkpt>
      <trkpt lat="43.00734" lon="9.40367">
        <ele>2.060059</ele>
        <time>2012-09-08T14:47:27Z</time>
      </trkpt>
      <trkpt lat="43.00761" lon="9.40546">
        <ele>2.060059</ele>
        <time>2012-09-08T14:47:51Z</time>
      </trkpt>
      <trkpt lat="43.008" lon="9.40681">
        <ele>2.540649</ele>
        <time>2012-09-08T14:48:05Z</time>
      </trkpt>
      <trkpt lat="43.00888" lon="9.40778">
        <ele>3.02124</ele>
        <time>2012-09-08T14:48:19Z</time>
      </trkpt>
      <trkpt lat="43.00974" lon="9.4091">
        <ele>2.540649</ele>
        <time>2012-09-08T14:48:35Z</time>
      </trkpt>
      <trkpt lat="43.01041" lon="9.41092">
        <ele>2.060059</ele>
        <time>2012-09-08T14:48:53Z</time>
      </trkpt>
      <trkpt lat="43.01096" lon="9.41269">
        <ele>2.540649</ele>
        <time>2012-09-08T14:49:10Z</time>
      </trkpt>
      <trkpt lat="43.01151" lon="9.41449">
        <ele>3.02124</ele>
        <time>2012-09-08T14:49:27Z</time>
      </trkpt>
      <trkpt lat="43.01209" lon="9.41623">
        <ele>3.982666</ele>
        <time>2012-09-08T14:49:44Z</time>
      </trkpt>
      <trkpt lat="43.01265" lon="9.41821">
        <ele>3.982666</ele>
        <time>2012-09-08T14:50:03Z</time>
      </trkpt>
      <trkpt lat="43.01303" lon="9.42005">
        <ele>3.501953</ele>
        <time>2012-09-08T14:50:20Z</time>
      </trkpt>
      <trkpt lat="43.01309" lon="9.42087">
        <ele>2.540649</ele>
        <time>2012-09-08T14:50:30Z</time>
      </trkpt>
      <trkpt lat="43.01307" lon="9.42106">
        <ele>2.540649</ele>
        <time>2012-09-08T14:50:33Z</time>
      </trkpt>
      <trkpt lat="43.01301" lon="9.42127">
        <ele>3.02124</ele>
        <time>2012-09-08T14:50:36Z</time>
      </trkpt>
      <trkpt lat="43.01276" lon="9.42236">
        <ele>3.02124</ele>
        <time>2012-09-08T14:50:46Z</time>
      </trkpt>
      <trkpt lat="43.01224" lon="9.42442">
        <ele>3.02124</ele>
        <time>2012-09-08T14:51:01Z</time>
      </trkpt>
      <trkpt lat="43.01151" lon="9.42725">
        <ele>3.501953</ele>
        <time>2012-09-08T14:51:22Z</time>
      </trkpt>
      <trkpt lat="43.01103" lon="9.42849">
        <ele>3.982666</ele>
        <time>2012-09-08T14:51:34Z</time>
      </trkpt>
      <trkpt lat="43.01022" lon="9.42993">
        <ele>3.501953</ele>
        <time>2012-09-08T14:51:53Z</time>
      </trkpt>
      <trkpt lat="43.00909" lon="9.43177">
        <ele>3.02124</ele>
        <time>2012-09-08T14:52:13Z</time>
      </trkpt>
      <trkpt lat="43.00772" lon="9.43429">
        <ele>3.982666</ele>
        <time>2012-09-08T14:52:35Z</time>
      </trkpt>
      <trkpt lat="43.00618" lon="9.43685">
        <ele>3.02124</ele>
        <time>2012-09-08T14:52:58Z</time>
      </trkpt>
      <trkpt lat="43.00439" lon="9.43976">
        <ele>3.501953</ele>
        <time>2012-09-08T14:53:24Z</time>
      </trkpt>
      <trkpt lat="43.00265" lon="9.4425">
        <ele>4.463257</ele>
        <time>2012-09-08T14:53:49Z</time>
      </trkpt>
      <trkpt lat="43.00088" lon="9.44522">
        <ele>3.982666</ele>
        <time>2012-09-08T14:54:14Z</time>
      </trkpt>
      <trkpt lat="42.99921" lon="9.44786">
        <ele>3.501953</ele>
        <time>2012-09-08T14:54:38Z</time>
      </trkpt>
      <trkpt lat="42.99767" lon="9.45043">
        <ele>4.943848</ele>
        <time>2012-09-08T14:55:01Z</time>
      </trkpt>
      <trkpt lat="42.99608" lon="9.45295">
        <ele>4.463257</ele>
        <time>2012-09-08T14:55:24Z</time>
      </trkpt>
      <trkpt lat="42.99463" lon="9.45539">
        <ele>4.943848</ele>
        <time>2012-09-08T14:55:46Z</time>
      </trkpt>
      <trkpt lat="42.99288" lon="9.45806">
        <ele>4.943848</ele>
        <time>2012-09-08T14:56:11Z</time>
      </trkpt>
      <trkpt lat="42.99187" lon="9.45983">
        <ele>4.943848</ele>
        <time>2012-09-08T14:56:27Z</time>
      </trkpt>
      <trkpt lat="42.99106" lon="9.46108">
        <ele>6.385864</ele>
        <time>2012-09-08T14:56:39Z</time>
      </trkpt>
      <trkpt lat="42.98983" lon="9.46336">
        <ele>6.385864</ele>
        <time>2012-09-08T14:56:59Z</time>
      </trkpt>
      <trkpt lat="42.98844" lon="9.46588">
        <ele>5.905273</ele>
        <time>2012-09-08T14:57:21Z</time>
      </trkpt>
      <trkpt lat="42.98752" lon="9.46753">
        <ele>4.943848</ele>
        <time>2012-09-08T14:57:37Z</time>
      </trkpt>
      <trkpt lat="42.98676" lon="9.46874">
        <ele>4.943848</ele>
        <time>2012-09-08T14:57:55Z</time>
      </trkpt>
      <trkpt lat="42.9863" lon="9.46928">
        <ele>5.424561</ele>
        <time>2012-09-08T14:58:10Z</time>
      </trkpt>
      <trkpt lat="42.98578" lon="9.47009">
        <ele>5.905273</ele>
        <time>2012-09-08T14:58:24Z</time>
      </trkpt>
      <trkpt lat="42.98517" lon="9.47124">
        <ele>4.943848</ele>
        <time>2012-09-08T14:58:39Z</time>
      </trkpt>
      <trkpt lat="42.98473" lon="9.47175">
        <ele>5.424561</ele>
        <time>2012-09-08T14:58:54Z</time>
      </trkpt>
      <trkpt lat="42.98421" lon="9.47207">
        <ele>5.424561</ele>
        <time>2012-09-08T14:59:17Z</time>
      </trkpt>
      <trkpt lat="42.98373" lon="9.47238">
        <ele>5.905273</ele>
        <time>2012-09-08T14:59:45Z</time>
      </trkpt>
      <trkpt lat="42.98338" lon="9.47262">
        <ele>5.905273</ele>
        <time>2012-09-08T15:00:05Z</time>
      </trkpt>
      <trkpt lat="42.98309" lon="9.47247">
        <ele>5.424561</ele>
        <time>2012-09-08T15:00:23Z</time>
      </trkpt>
      <trkpt lat="42.98258" lon="9.47194">
        <ele>5.424561</ele>
        <time>2012-09-08T15:00:45Z</time>
      </trkpt>
      <trkpt lat="42.98197" lon="9.47143">
        <ele>6.385864</ele>
        <time>2012-09-08T15:01:04Z</time>
      </trkpt>
      <trkpt lat="42.98111" lon="9.47084">
        <ele>6.866455</ele>
        <time>2012-09-08T15:01:18Z</time>
      </trkpt>
      <trkpt lat="42.97948" lon="9.46985">
        <ele>6.866455</ele>
        <time>2012-09-08T15:01:38Z</time>
      </trkpt>
      <trkpt lat="42.97773" lon="9.46904">
        <ele>6.866455</ele>
        <time>2012-09-08T15:01:58Z</time>
      </trkpt>
      <trkpt lat="42.97575" lon="9.46795">
        <ele>7.347168</ele>
        <time>2012-09-08T15:02:21Z</time>
      </trkpt>
      <trkpt lat="42.97358" lon="9.46681">
        <ele>7.347168</ele>
        <time>2012-09-08T15:02:46Z</time>
      </trkpt>
      <trkpt lat="42.9714" lon="9.46531">
        <ele>6.866455</ele>
        <time>2012-09-08T15:03:12Z</time>
      </trkpt>
      <trkpt lat="42.96933" lon="9.4639">
        <ele>7.827881</ele>
        <time>2012-09-08T15:03:38Z</time>
      </trkpt>
      <trkpt lat="42.96755" lon="9.46261">
        <ele>7.347168</ele>
        <time>2012-09-08T15:04:01Z</time>
      </trkpt>
      <trkpt lat="42.96594" lon="9.46139">
        <ele>7.827881</ele>
        <time>2012-09-08T15:04:22Z</time>
      </trkpt>
      <trkpt lat="42.96479" lon="9.46035">
        <ele>7.827881</ele>
        <time>2012-09-08T15:04:40Z</time>
      </trkpt>
      <trkpt lat="42.9635" lon="9.45886">
        <ele>7.827881</ele>
        <time>2012-09-08T15:05:04Z</time>
      </trkpt>
      <trkpt lat="42.96299" lon="9.45774">
        <ele>7.827881</ele>
        <time>2012-09-08T15:05:19Z</time>
      </trkpt>
      <trkpt lat="42.96276" lon="9.45706">
        <ele>7.347168</ele>
        <time>2012-09-08T15:05:33Z</time>
      </trkpt>
      <trkpt lat="42.96242" lon="9.45568">
        <ele>7.827881</ele>
        <time>2012-09-08T15:06:04Z</time>
      </trkpt>
      <trkpt lat="42.96214" lon="9.45459">
        <ele>7.827881</ele>
        <time>2012-09-08T15:06:29Z</time>
      </trkpt>
      <trkpt lat="42.96182" lon="9.45413">
        <ele>7.827881</ele>
        <time>2012-09-08T15:06:46Z</time>
      </trkpt>
      <trkpt lat="42.96159" lon="9.45412">
        <ele>8.308594</ele>
        <time>2012-09-08T15:07:06Z</time>
      </trkpt>
      <trkpt lat="42.96146" lon="9.45421">
        <ele>7.827881</ele>
        <time>2012-09-08T15:07:26Z</time>
      </trkpt>
      <trkpt lat="42.96106" lon="9.45433">
        <ele>6.866455</ele>
        <time>2012-09-08T15:07:50Z</time>
      </trkpt>
      <trkpt lat="42.96044" lon="9.45432">
        <ele>7.347168</ele>
        <time>2012-09-08T15:08:22Z</time>
      </trkpt>
      <trkpt lat="42.95994" lon="9.45471">
        <ele>6.866455</ele>
        <time>2012-09-08T15:08:47Z</time>
      </trkpt>
      <trkpt lat="42.95935" lon="9.45501">
        <ele>7.347168</ele>
        <time>2012-09-08T15:09:15Z</time>
      </trkpt>
      <trkpt lat="42.95869" lon="9.45509">
        <ele>6.866455</ele>
        <time>2012-09-08T15:09:49Z</time>
      </trkpt>
      <trkpt lat="42.95822" lon="9.45511">
        <ele>7.347168</ele>
        <time>2012-09-08T15:10:26Z</time>
      </trkpt>
      <trkpt lat="42.95788" lon="9.45514">
        <ele>6.866455</ele>
        <time>2012-09-08T15:11:01Z</time>
      </trkpt>
      <trkpt lat="42.95785" lon="9.45517">
        <ele>5.905273</ele>
        <time>2012-09-08T15:11:10Z</time>
      </trkpt>
    </trkseg>
  </trk>
</gpx>